Time;durP1;ratioP1;P1;durP2;ratioP2;P2;SDS_P1;SDS_P2;PMS_P1;PMS_P2;Temp;Humidity;BMP_temperature;BMP_pressure;BME280_temperature;BME280_humidity;BME280_pressure;Samples;Min_cycle;Max_cycle;Signal;HPM_P1;HPM_P2
2023/07/20 00:01:49;;;;;;;1.70;1.60;;;23.90;66.30;;;;;;4974367;28;20251;-71
2023/07/20 00:04:15;;;;;;;1.98;1.75;;;23.80;66.10;;;;;;4990260;28;20205;-70
2023/07/20 00:06:41;;;;;;;1.85;1.75;;;23.90;66.10;;;;;;4973061;28;20739;-71
2023/07/20 00:09:07;;;;;;;2.42;1.73;;;23.80;66.20;;;;;;4978998;28;20190;-70
2023/07/20 00:11:40;;;;;;;1.67;1.58;;;23.80;66.10;;;;;;4986468;28;20215;-70
2023/07/20 00:14:06;;;;;;;2.20;1.75;;;23.80;66.00;;;;;;4995077;28;20243;-70
2023/07/20 00:16:32;;;;;;;2.25;1.50;;;23.80;66.10;;;;;;4982183;28;20209;-70
2023/07/20 00:18:58;;;;;;;1.90;1.80;;;23.80;66.20;;;;;;4978636;28;20600;-70
2023/07/20 00:21:25;;;;;;;2.65;1.70;;;23.80;66.20;;;;;;4962773;28;20194;-69
2023/07/20 00:23:51;;;;;;;1.63;1.52;;;23.90;66.20;;;;;;4979937;28;20217;-70
2023/07/20 00:26:17;;;;;;;1.60;1.50;;;23.80;66.10;;;;;;4989480;28;20197;-69
2023/07/20 00:28:43;;;;;;;2.13;1.42;;;23.80;66.00;;;;;;4973121;28;20193;-69
2023/07/20 00:31:09;;;;;;;2.17;1.98;;;23.90;66.30;;;;;;4977658;28;20718;-69
2023/07/20 00:33:36;;;;;;;1.65;1.55;;;23.80;66.20;;;;;;4978154;28;20205;-70
2023/07/20 00:36:02;;;;;;;3.05;1.60;;;23.90;66.10;;;;;;4970972;28;20243;-70
2023/07/20 00:38:28;;;;;;;1.45;1.35;;;23.80;66.10;;;;;;4959924;28;20319;-70
2023/07/20 00:40:53;;;;;;;1.60;1.50;;;23.80;66.10;;;;;;4988190;28;20196;-70
2023/07/20 00:43:19;;;;;;;2.00;1.90;;;23.80;66.80;;;;;;4970362;28;20296;-70
2023/07/20 00:45:45;;;;;;;1.60;1.50;;;23.80;66.00;;;;;;4975690;28;20198;-70
2023/07/20 00:48:14;;;;;;;2.10;1.90;;;23.80;66.00;;;;;;4957729;28;20193;-71
2023/07/20 00:50:40;;;;;;;2.25;1.60;;;23.80;66.00;;;;;;4966049;28;20672;-71
2023/07/20 00:53:07;;;;;;;2.05;1.80;;;23.80;66.00;;;;;;4970357;28;20205;-70
2023/07/20 00:55:33;;;;;;;2.33;1.70;;;23.80;66.10;;;;;;4958174;28;20196;-70
2023/07/20 00:58:00;;;;;;;1.58;1.48;;;23.80;66.00;;;;;;4971678;28;20189;-70
2023/07/20 01:00:27;;;;;;;1.70;1.60;;;23.80;66.10;;;;;;4972847;28;20212;-70
2023/07/20 01:02:53;;;;;;;1.75;1.65;;;23.80;66.00;;;;;;4980287;28;20258;-70
2023/07/20 01:05:22;;;;;;;1.60;1.50;;;23.80;66.00;;;;;;4980002;28;20276;-70
2023/07/20 01:08:18;;;;;;;2.10;1.90;;;23.80;66.00;;;;;;4977635;28;20228;-70
2023/07/20 01:10:57;;;;;;;1.85;1.70;;;23.80;65.90;;;;;;4971114;28;20808;-70
2023/07/20 01:13:25;;;;;;;2.00;1.90;;;23.80;66.00;;;;;;4973471;28;20207;-70
2023/07/20 01:16:01;;;;;;;1.60;1.50;;;23.80;66.00;;;;;;4972227;28;20188;-70
2023/07/20 01:18:27;;;;;;;2.08;1.67;;;23.80;66.80;;;;;;4977338;28;20185;-70
2023/07/20 01:21:00;;;;;;;2.08;1.88;;;23.80;65.90;;;;;;4969329;28;20197;-70
2023/07/20 01:24:09;;;;;;;1.83;1.50;;;23.80;65.80;;;;;;4980143;28;20228;-70
2023/07/20 01:27:04;;;;;;;1.60;1.50;;;23.80;65.90;;;;;;4978209;28;20197;-70
2023/07/20 01:30:25;;;;;;;1.65;1.55;;;23.80;65.90;;;;;;4971763;28;20201;-70
2023/07/20 01:32:55;;;;;;;2.00;1.90;;;23.80;65.80;;;;;;4973482;28;20209;-70
2023/07/20 01:35:28;;;;;;;2.00;1.80;;;23.80;65.80;;;;;;4986540;28;20264;-70
2023/07/20 01:37:55;;;;;;;1.90;1.70;;;23.80;65.80;;;;;;4967364;28;20186;-70
2023/07/20 01:40:25;;;;;;;2.55;1.60;;;23.80;65.80;;;;;;4983541;28;20236;-70
2023/07/20 01:42:53;;;;;;;2.00;1.70;;;23.80;65.60;;;;;;4966347;28;20193;-70
2023/07/20 01:45:19;;;;;;;1.67;1.58;;;23.80;65.60;;;;;;4995269;28;20185;-70
2023/07/20 01:47:45;;;;;;;1.60;1.50;;;23.80;65.60;;;;;;4962750;28;20626;-70
2023/07/20 01:50:11;;;;;;;2.35;1.85;;;23.80;65.50;;;;;;4985259;28;20212;-70
2023/07/20 01:52:37;;;;;;;1.75;1.45;;;23.70;65.70;;;;;;4976468;28;20220;-70
2023/07/20 01:55:04;;;;;;;1.88;1.77;;;23.80;65.70;;;;;;4966593;28;20256;-70
2023/07/20 01:57:31;;;;;;;1.60;1.50;;;23.80;65.70;;;;;;4956763;28;20190;-70
2023/07/20 01:59:57;;;;;;;1.98;1.77;;;23.70;65.40;;;;;;4974187;28;20243;-70
2023/07/20 02:02:28;;;;;;;1.98;1.70;;;23.80;65.80;;;;;;4976542;28;20674;-70
2023/07/20 02:04:54;;;;;;;2.08;1.55;;;23.80;65.60;;;;;;4975673;28;20227;-71
2023/07/20 02:07:20;;;;;;;1.83;1.73;;;23.70;65.50;;;;;;4966974;28;20190;-70
2023/07/20 02:09:46;;;;;;;1.85;1.67;;;23.80;65.60;;;;;;4958164;28;20221;-70
2023/07/20 02:12:11;;;;;;;1.58;1.48;;;23.80;65.60;;;;;;4981279;28;20202;-70
2023/07/20 02:14:37;;;;;;;2.65;2.10;;;23.80;65.50;;;;;;4984217;28;20759;-71
2023/07/20 02:17:04;;;;;;;1.70;1.60;;;23.70;65.50;;;;;;4964022;28;20186;-70
2023/07/20 02:19:30;;;;;;;2.00;1.60;;;23.70;65.40;;;;;;4985901;28;20184;-70
2023/07/20 02:21:57;;;;;;;1.95;1.80;;;23.70;65.40;;;;;;4992547;28;20287;-70
2023/07/20 02:24:23;;;;;;;2.00;1.88;;;23.70;65.30;;;;;;4988445;28;20293;-71
2023/07/20 02:26:48;;;;;;;2.15;1.65;;;23.70;65.40;;;;;;4968649;28;20339;-70
2023/07/20 02:29:14;;;;;;;1.98;1.73;;;23.70;65.30;;;;;;4983353;28;20224;-71
2023/07/20 02:31:42;;;;;;;1.90;1.80;;;23.70;65.40;;;;;;4978252;28;20210;-70
2023/07/20 02:34:09;;;;;;;1.70;1.60;;;23.70;65.30;;;;;;4970752;28;20209;-71
2023/07/20 02:36:35;;;;;;;2.10;1.90;;;23.70;65.00;;;;;;4968675;28;20239;-70
2023/07/20 02:39:04;;;;;;;1.92;1.83;;;23.70;65.00;;;;;;4979844;28;20182;-71
2023/07/20 02:41:33;;;;;;;1.60;1.50;;;23.70;65.20;;;;;;4969714;28;20196;-70
2023/07/20 02:44:01;;;;;;;2.15;2.03;;;23.70;65.10;;;;;;4983050;28;20216;-71
2023/07/20 02:46:29;;;;;;;1.98;1.88;;;23.70;65.20;;;;;;4968323;28;20226;-71
2023/07/20 02:48:56;;;;;;;1.88;1.77;;;23.70;65.10;;;;;;4988484;28;20194;-70
2023/07/20 02:51:21;;;;;;;2.30;2.10;;;23.70;65.20;;;;;;4993057;28;20220;-70
2023/07/20 02:53:47;;;;;;;2.03;1.90;;;23.70;65.20;;;;;;4977321;28;20214;-70
2023/07/20 02:56:14;;;;;;;2.05;1.85;;;23.70;65.20;;;;;;4988481;28;20184;-70
2023/07/20 02:58:45;;;;;;;1.88;1.75;;;23.70;65.20;;;;;;4983009;28;20724;-70
2023/07/20 03:01:12;;;;;;;2.25;1.63;;;23.70;65.20;;;;;;4981338;28;20203;-71
2023/07/20 03:03:38;;;;;;;1.77;1.67;;;23.70;65.20;;;;;;4977651;28;20221;-70
2023/07/20 03:06:05;;;;;;;1.90;1.80;;;23.70;65.20;;;;;;4983641;28;20193;-70
2023/07/20 03:08:31;;;;;;;1.85;1.75;;;23.70;65.10;;;;;;4977418;28;20200;-71
2023/07/20 03:10:57;;;;;;;1.90;1.80;;;23.70;65.10;;;;;;4961117;28;20296;-70
2023/07/20 03:13:24;;;;;;;1.85;1.70;;;23.60;65.20;;;;;;4975618;28;20208;-71
2023/07/20 03:15:51;;;;;;;2.00;1.90;;;23.70;65.30;;;;;;4991247;28;20252;-71
2023/07/20 03:18:17;;;;;;;2.17;1.95;;;23.60;65.10;;;;;;4990166;28;20216;-70
2023/07/20 03:20:43;;;;;;;2.28;2.00;;;23.60;65.00;;;;;;4987875;28;20197;-70
2023/07/20 03:23:08;;;;;;;2.03;1.65;;;23.60;64.90;;;;;;4961686;28;20209;-70
2023/07/20 03:25:37;;;;;;;1.70;1.60;;;23.60;65.10;;;;;;4971731;28;20189;-70
2023/07/20 03:28:03;;;;;;;2.22;2.03;;;23.70;65.00;;;;;;4987674;28;20272;-70
2023/07/20 03:30:29;;;;;;;2.15;2.00;;;23.60;64.90;;;;;;4987901;28;20201;-70
2023/07/20 03:32:55;;;;;;;2.15;1.95;;;23.60;64.70;;;;;;4967541;28;20261;-71
2023/07/20 03:35:21;;;;;;;2.95;1.75;;;23.60;65.10;;;;;;4971443;28;20301;-71
2023/07/20 03:37:47;;;;;;;1.77;1.67;;;23.60;65.10;;;;;;4979007;28;20284;-71
2023/07/20 03:40:14;;;;;;;1.98;1.80;;;23.60;65.10;;;;;;4989467;28;20264;-70
2023/07/20 03:42:41;;;;;;;1.92;1.80;;;23.60;65.00;;;;;;4966805;28;20189;-71
2023/07/20 03:45:08;;;;;;;2.10;1.90;;;23.60;64.90;;;;;;4990643;28;20197;-71
2023/07/20 03:47:33;;;;;;;2.20;2.00;;;23.60;64.90;;;;;;4977452;28;20349;-71
2023/07/20 03:49:59;;;;;;;1.92;1.83;;;23.60;65.10;;;;;;4982943;28;20284;-70
2023/07/20 03:52:25;;;;;;;2.03;1.83;;;23.60;65.00;;;;;;4966649;28;20216;-71
2023/07/20 03:54:51;;;;;;;1.90;1.80;;;23.60;65.10;;;;;;4976261;28;20241;-71
2023/07/20 03:57:17;;;;;;;2.00;1.80;;;23.60;65.10;;;;;;4978503;28;20257;-70
2023/07/20 03:59:46;;;;;;;1.85;1.75;;;23.60;65.00;;;;;;4960882;28;20208;-70
2023/07/20 04:02:12;;;;;;;2.08;1.92;;;23.60;65.10;;;;;;4972740;28;20219;-70
2023/07/20 04:04:40;;;;;;;1.90;1.65;;;23.60;65.00;;;;;;4985755;28;20212;-70
2023/07/20 04:07:07;;;;;;;2.83;1.80;;;23.60;65.00;;;;;;4972140;28;20189;-70
2023/07/20 04:09:33;;;;;;;2.00;1.83;;;23.60;65.00;;;;;;4989119;28;20670;-71
2023/07/20 04:12:00;;;;;;;2.03;1.83;;;23.60;65.10;;;;;;4970831;28;20211;-71
2023/07/20 04:14:25;;;;;;;1.90;1.80;;;23.60;64.90;;;;;;4954698;28;20205;-70
2023/07/20 04:16:51;;;;;;;1.63;1.52;;;23.60;65.00;;;;;;4994601;28;20199;-70
2023/07/20 04:19:18;;;;;;;1.83;1.73;;;23.60;65.00;;;;;;4986861;28;20186;-70
2023/07/20 04:21:44;;;;;;;2.00;1.90;;;23.60;65.70;;;;;;4984396;28;20216;-70
2023/07/20 04:24:10;;;;;;;2.35;2.00;;;23.60;64.90;;;;;;4957852;28;20217;-70
2023/07/20 04:26:37;;;;;;;2.10;2.00;;;23.60;65.10;;;;;;4989485;28;20189;-70
2023/07/20 04:29:03;;;;;;;1.65;1.55;;;23.60;65.10;;;;;;4989970;28;20217;-71
2023/07/20 04:31:35;;;;;;;2.15;1.60;;;23.60;65.10;;;;;;4986226;28;20213;-71
2023/07/20 04:34:01;;;;;;;1.70;1.60;;;23.60;65.10;;;;;;4985021;28;20209;-72
2023/07/20 04:36:27;;;;;;;2.00;1.90;;;23.60;65.20;;;;;;4961214;28;20209;-70
2023/07/20 04:38:54;;;;;;;3.13;1.85;;;23.60;65.20;;;;;;4978681;28;20201;-71
2023/07/20 04:41:21;;;;;;;2.58;2.20;;;23.60;65.20;;;;;;4988452;28;20220;-70
2023/07/20 04:43:48;;;;;;;1.90;1.70;;;23.60;65.20;;;;;;4990094;28;20213;-71
2023/07/20 04:46:21;;;;;;;1.85;1.67;;;23.60;65.10;;;;;;4972076;28;20195;-70
2023/07/20 04:48:47;;;;;;;2.03;1.90;;;23.60;65.10;;;;;;4978082;28;20193;-70
2023/07/20 04:51:14;;;;;;;1.67;1.58;;;23.60;65.10;;;;;;4963321;28;20312;-70
2023/07/20 04:53:40;;;;;;;1.73;1.63;;;23.60;65.10;;;;;;4973391;28;20304;-71
2023/07/20 04:56:08;;;;;;;1.95;1.73;;;23.60;65.20;;;;;;4973824;28;20554;-71
2023/07/20 04:58:34;;;;;;;1.95;1.80;;;23.60;65.10;;;;;;4973482;28;20659;-72
2023/07/20 05:01:00;;;;;;;1.92;1.80;;;23.60;65.10;;;;;;4966405;28;20224;-71
2023/07/20 05:03:26;;;;;;;2.38;2.00;;;23.60;65.10;;;;;;4971197;28;20204;-71
2023/07/20 05:05:53;;;;;;;1.88;1.77;;;23.60;65.10;;;;;;4955338;28;20258;-71
2023/07/20 05:08:19;;;;;;;1.70;1.60;;;23.60;65.20;;;;;;4962055;28;20193;-72
2023/07/20 05:10:47;;;;;;;1.73;1.63;;;23.50;65.20;;;;;;4980402;28;20708;-72
2023/07/20 05:13:14;;;;;;;1.80;1.70;;;23.60;65.20;;;;;;4968372;28;20205;-71
2023/07/20 05:15:40;;;;;;;1.73;1.50;;;23.60;65.20;;;;;;4987824;28;20189;-72
2023/07/20 05:18:09;;;;;;;1.77;1.67;;;23.60;65.20;;;;;;4985174;28;20212;-72
2023/07/20 05:20:37;;;;;;;1.73;1.63;;;23.60;65.20;;;;;;4958164;28;20197;-71
2023/07/20 05:23:03;;;;;;;1.77;1.67;;;23.60;65.00;;;;;;4973527;28;20204;-72
2023/07/20 05:25:29;;;;;;;1.95;1.85;;;23.60;64.90;;;;;;4971123;28;20662;-71
2023/07/20 05:27:55;;;;;;;1.80;1.70;;;23.60;64.90;;;;;;4956644;28;20198;-70
2023/07/20 05:30:21;;;;;;;1.50;1.40;;;23.60;65.00;;;;;;4984244;28;20197;-71
2023/07/20 05:32:50;;;;;;;2.15;1.90;;;23.60;64.80;;;;;;4977674;28;20217;-71
2023/07/20 05:35:20;;;;;;;1.80;1.67;;;23.60;64.70;;;;;;4986526;28;20188;-71
2023/07/20 05:37:48;;;;;;;2.25;1.83;;;23.60;64.70;;;;;;4958613;28;20186;-71
2023/07/20 05:40:18;;;;;;;2.13;1.92;;;23.60;64.70;;;;;;4969518;28;20190;-73
2023/07/20 05:42:46;;;;;;;1.90;1.80;;;23.60;64.80;;;;;;4977099;28;20200;-73
2023/07/20 05:45:12;;;;;;;1.70;1.60;;;23.60;64.70;;;;;;4970392;28;20200;-74
2023/07/20 05:47:38;;;;;;;2.45;1.70;;;23.60;64.80;;;;;;4957899;28;20276;-73
2023/07/20 05:50:04;;;;;;;1.63;1.52;;;23.60;65.50;;;;;;4956644;28;20257;-73
2023/07/20 05:52:30;;;;;;;2.28;1.85;;;23.60;64.70;;;;;;4972462;28;20217;-73
2023/07/20 05:54:56;;;;;;;2.00;1.80;;;23.60;64.70;;;;;;4971162;28;20217;-73
2023/07/20 05:57:22;;;;;;;1.90;1.65;;;23.60;64.70;;;;;;4963040;28;20239;-73
2023/07/20 05:59:48;;;;;;;1.73;1.63;;;23.60;64.70;;;;;;4969706;28;20218;-74
2023/07/20 06:02:14;;;;;;;1.77;1.63;;;23.60;64.70;;;;;;4964692;28;20197;-73
2023/07/20 06:04:40;;;;;;;1.88;1.70;;;23.60;64.70;;;;;;4967340;28;20228;-75
2023/07/20 06:07:07;;;;;;;1.90;1.80;;;23.60;64.70;;;;;;4968477;28;20197;-74
2023/07/20 06:09:34;;;;;;;2.08;1.75;;;23.60;64.70;;;;;;4969086;28;20322;-73
2023/07/20 06:12:00;;;;;;;1.48;1.38;;;23.60;64.70;;;;;;4972431;28;20265;-72
2023/07/20 06:14:26;;;;;;;1.83;1.73;;;23.60;64.70;;;;;;4974089;28;20221;-72
2023/07/20 06:16:52;;;;;;;1.70;1.60;;;23.60;64.70;;;;;;4988864;28;20662;-72
2023/07/20 06:19:18;;;;;;;2.45;1.80;;;23.60;64.70;;;;;;4971828;28;20181;-71
2023/07/20 06:21:44;;;;;;;1.90;1.80;;;23.60;64.60;;;;;;4964889;28;20252;-72
2023/07/20 06:24:10;;;;;;;1.90;1.80;;;23.60;64.50;;;;;;4984565;28;20240;-73
2023/07/20 06:26:39;;;;;;;1.83;1.73;;;23.60;64.50;;;;;;4956982;28;20186;-73
2023/07/20 06:29:09;;;;;;;1.80;1.70;;;23.60;64.60;;;;;;4987391;28;20212;-72
2023/07/20 06:31:36;;;;;;;2.58;1.55;;;23.60;64.60;;;;;;4988843;28;20702;-73
2023/07/20 06:34:03;;;;;;;2.40;1.77;;;23.60;64.50;;;;;;4979704;28;20216;-73
2023/07/20 06:36:29;;;;;;;1.75;1.65;;;23.60;64.70;;;;;;4974074;28;20189;-72
2023/07/20 06:38:56;;;;;;;1.90;1.80;;;23.60;64.50;;;;;;4986702;28;20284;-72
2023/07/20 06:41:22;;;;;;;1.67;1.58;;;23.60;64.40;;;;;;4980633;28;20189;-72
2023/07/20 06:43:49;;;;;;;2.83;1.77;;;23.60;64.20;;;;;;4992451;28;20267;-73
2023/07/20 06:46:15;;;;;;;2.17;1.90;;;23.60;64.40;;;;;;4976578;28;20189;-72
2023/07/20 06:48:41;;;;;;;1.85;1.73;;;23.60;64.40;;;;;;4960670;28;20219;-72
2023/07/20 06:51:06;;;;;;;2.63;1.80;;;23.60;64.30;;;;;;4975800;28;20213;-73
2023/07/20 06:53:33;;;;;;;1.95;1.75;;;23.60;64.40;;;;;;4965883;28;20686;-72
2023/07/20 06:55:59;;;;;;;1.90;1.55;;;23.60;64.30;;;;;;4987072;28;20185;-72
2023/07/20 06:58:25;;;;;;;2.10;1.90;;;23.60;64.30;;;;;;4983165;28;20200;-73
2023/07/20 07:00:51;;;;;;;1.92;1.70;;;23.60;64.20;;;;;;4992170;28;20191;-72
2023/07/20 07:03:18;;;;;;;1.63;1.52;;;23.60;64.30;;;;;;4992115;28;20236;-73
2023/07/20 07:05:47;;;;;;;2.85;1.60;;;23.60;64.20;;;;;;4967858;28;20694;-72
2023/07/20 07:08:13;;;;;;;2.58;1.90;;;23.60;64.20;;;;;;4983912;28;20193;-73
2023/07/20 07:10:39;;;;;;;2.13;1.92;;;23.60;64.20;;;;;;4988314;28;20244;-73
2023/07/20 07:13:05;;;;;;;1.88;1.50;;;23.60;64.20;;;;;;4991670;28;20208;-72
2023/07/20 07:15:32;;;;;;;1.60;1.50;;;23.60;64.30;;;;;;4975527;28;20196;-73
2023/07/20 07:17:59;;;;;;;1.92;1.80;;;23.70;64.40;;;;;;4974817;28;20232;-73
2023/07/20 07:20:26;;;;;;;1.40;1.30;;;23.60;64.00;;;;;;4963530;28;20202;-73
2023/07/20 07:22:52;;;;;;;1.75;1.55;;;23.60;64.20;;;;;;4964921;28;20197;-72
2023/07/20 07:25:19;;;;;;;1.52;1.42;;;23.60;64.40;;;;;;4967772;28;20651;-73
2023/07/20 07:27:46;;;;;;;2.35;1.67;;;23.60;64.70;;;;;;4971715;28;20272;-72
2023/07/20 07:30:13;;;;;;;1.55;1.42;;;23.60;64.30;;;;;;4983822;28;20651;-72
2023/07/20 07:32:39;;;;;;;1.80;1.70;;;23.60;64.20;;;;;;4970943;28;20272;-73
2023/07/20 07:35:06;;;;;;;2.15;1.77;;;23.60;64.00;;;;;;4984679;28;20193;-72
2023/07/20 07:37:32;;;;;;;1.70;1.60;;;23.70;64.20;;;;;;4971560;28;20227;-73
2023/07/20 07:39:58;;;;;;;1.88;1.73;;;23.60;64.00;;;;;;4984559;28;20276;-72
2023/07/20 07:42:25;;;;;;;1.98;1.77;;;23.60;64.20;;;;;;4976620;28;20194;-73
2023/07/20 07:44:51;;;;;;;1.95;1.70;;;23.60;64.10;;;;;;4979956;28;20285;-73
2023/07/20 07:47:17;;;;;;;1.98;1.60;;;23.60;64.00;;;;;;4962082;28;20188;-72
2023/07/20 07:49:44;;;;;;;1.95;1.80;;;23.60;64.10;;;;;;4963515;28;20202;-73
2023/07/20 07:52:10;;;;;;;1.70;1.60;;;23.60;64.00;;;;;;4982398;28;20218;-72
2023/07/20 07:54:36;;;;;;;2.00;1.80;;;23.60;63.80;;;;;;4970786;28;20213;-73
2023/07/20 07:57:03;;;;;;;2.10;1.65;;;23.70;64.00;;;;;;4982908;28;20193;-73
2023/07/20 07:59:31;;;;;;;1.98;1.70;;;23.70;64.00;;;;;;4965772;28;20204;-72
2023/07/20 08:01:58;;;;;;;1.55;1.45;;;23.70;63.90;;;;;;4971322;28;20286;-72
2023/07/20 08:04:24;;;;;;;2.55;1.80;;;23.70;63.70;;;;;;4983826;28;20210;-72
2023/07/20 08:06:50;;;;;;;1.50;1.40;;;23.70;63.60;;;;;;4967154;28;20252;-73
2023/07/20 08:09:17;;;;;;;2.00;1.83;;;23.70;63.70;;;;;;4990542;28;20185;-73
2023/07/20 08:11:44;;;;;;;1.92;1.80;;;23.70;63.70;;;;;;4987280;28;20222;-73
2023/07/20 08:14:10;;;;;;;2.20;2.00;;;23.70;63.80;;;;;;4990118;28;20232;-73
2023/07/20 08:16:36;;;;;;;1.95;1.85;;;23.70;63.90;;;;;;4964184;28;20213;-72
2023/07/20 08:19:02;;;;;;;1.65;1.55;;;23.70;64.00;;;;;;4971094;28;20196;-73
2023/07/20 08:21:29;;;;;;;2.35;1.67;;;23.80;63.90;;;;;;4965847;28;20577;-73
2023/07/20 08:23:56;;;;;;;1.63;1.52;;;23.80;63.90;;;;;;4990075;28;20298;-72
2023/07/20 08:26:25;;;;;;;2.00;1.75;;;23.80;64.10;;;;;;4974094;28;20189;-72
2023/07/20 08:28:52;;;;;;;1.65;1.55;;;23.80;63.80;;;;;;4973369;28;20189;-72
2023/07/20 08:31:18;;;;;;;1.88;1.77;;;23.80;63.90;;;;;;4966967;28;20297;-72
2023/07/20 08:33:44;;;;;;;1.83;1.73;;;23.80;63.90;;;;;;4961326;28;20209;-72
2023/07/20 08:36:11;;;;;;;2.97;1.83;;;23.80;63.60;;;;;;4978286;28;20615;-72
2023/07/20 08:38:36;;;;;;;1.80;1.70;;;23.80;63.90;;;;;;4994273;28;20189;-73
2023/07/20 08:41:02;;;;;;;2.15;1.60;;;23.80;63.60;;;;;;4999637;28;20189;-72
2023/07/20 08:43:31;;;;;;;1.60;1.50;;;23.80;63.50;;;;;;4986291;28;20277;-72
2023/07/20 08:45:57;;;;;;;2.03;1.83;;;23.80;63.40;;;;;;4965925;28;20611;-72
2023/07/20 08:48:26;;;;;;;2.35;1.70;;;23.80;63.60;;;;;;4965758;28;20200;-73
2023/07/20 08:50:54;;;;;;;1.95;1.52;;;23.80;63.60;;;;;;4961811;28;20744;-72
2023/07/20 08:53:20;;;;;;;1.75;1.65;;;23.90;63.70;;;;;;4970676;28;20221;-72
2023/07/20 08:55:50;;;;;;;1.90;1.80;;;23.80;63.50;;;;;;4978402;28;20186;-72
2023/07/20 08:58:17;;;;;;;1.65;1.55;;;23.80;63.30;;;;;;4953778;28;20201;-73
2023/07/20 09:00:44;;;;;;;1.92;1.73;;;23.80;63.50;;;;;;4976758;28;20184;-72
2023/07/20 09:03:12;;;;;;;1.95;1.85;;;23.80;63.30;;;;;;4959232;28;20216;-73
2023/07/20 09:05:39;;;;;;;1.83;1.73;;;23.80;63.50;;;;;;4980613;28;20239;-72
2023/07/20 09:08:06;;;;;;;1.80;1.70;;;23.80;63.40;;;;;;4974421;28;20192;-73
2023/07/20 09:10:31;;;;;;;1.90;1.80;;;23.80;63.40;;;;;;4970215;28;20196;-72
2023/07/20 09:12:57;;;;;;;1.63;1.52;;;23.80;63.50;;;;;;4989886;28;20271;-72
2023/07/20 09:15:23;;;;;;;2.08;1.88;;;23.80;63.70;;;;;;4958186;28;20184;-72
2023/07/20 09:17:53;;;;;;;1.52;1.42;;;23.80;63.40;;;;;;4976528;28;20185;-72
2023/07/20 09:20:20;;;;;;;1.38;1.27;;;23.80;63.40;;;;;;4984622;28;20181;-72
2023/07/20 09:22:47;;;;;;;1.60;1.50;;;23.80;63.70;;;;;;4963535;28;20197;-72
2023/07/20 09:25:16;;;;;;;1.67;1.58;;;23.80;63.70;;;;;;4980166;28;20181;-73
2023/07/20 09:27:44;;;;;;;1.83;1.73;;;23.80;63.50;;;;;;4961222;28;20656;-73
2023/07/20 09:30:13;;;;;;;1.70;1.60;;;23.80;63.30;;;;;;4984416;28;20188;-73
2023/07/20 09:32:48;;;;;;;1.60;1.50;;;23.80;63.60;;;;;;4973101;28;20221;-72
2023/07/20 09:35:20;;;;;;;2.03;1.70;;;23.80;63.70;;;;;;4984123;28;20185;-72
2023/07/20 09:38:00;;;;;;;2.25;1.85;;;23.90;63.60;;;;;;4968886;28;20217;-72
2023/07/20 09:40:29;;;;;;;1.80;1.70;;;23.90;63.60;;;;;;4969073;28;20272;-73
2023/07/20 09:43:04;;;;;;;1.83;1.70;;;23.90;63.80;;;;;;4997215;28;20216;-73
2023/07/20 09:45:44;;;;;;;1.45;1.33;;;23.90;63.80;;;;;;4973023;28;20219;-72
2023/07/20 09:48:12;;;;;;;1.58;1.48;;;23.90;63.80;;;;;;4987908;28;20207;-72
2023/07/20 09:50:43;;;;;;;1.83;1.73;;;23.90;63.80;;;;;;4973490;28;20189;-72
2023/07/20 09:53:13;;;;;;;1.58;1.48;;;23.90;63.80;;;;;;4984208;28;20214;-72
2023/07/20 09:55:43;;;;;;;1.85;1.52;;;23.90;63.70;;;;;;4983660;28;20271;-73
2023/07/20 09:58:10;;;;;;;1.67;1.58;;;23.90;63.80;;;;;;4974437;28;20188;-73
2023/07/20 10:00:44;;;;;;;1.50;1.40;;;23.90;63.70;;;;;;4985987;28;20201;-72
2023/07/20 10:03:14;;;;;;;1.63;1.52;;;23.90;63.60;;;;;;4971496;28;20488;-73
2023/07/20 10:05:56;;;;;;;2.20;1.55;;;23.90;63.50;;;;;;4985798;28;20185;-73
2023/07/20 10:08:25;;;;;;;4.00;1.92;;;23.80;63.40;;;;;;4974462;28;20184;-73
2023/07/20 10:10:51;;;;;;;1.60;1.50;;;23.90;63.40;;;;;;4976815;28;20220;-73
2023/07/20 10:13:25;;;;;;;1.70;1.60;;;23.90;63.50;;;;;;4980546;28;20200;-72
2023/07/20 10:15:57;;;;;;;2.20;1.95;;;23.80;63.40;;;;;;4988810;28;20205;-73
2023/07/20 10:18:34;;;;;;;1.98;1.73;;;23.90;63.30;;;;;;4977548;28;20185;-73
2023/07/20 10:21:02;;;;;;;1.83;1.55;;;23.80;63.30;;;;;;4982974;28;20205;-73
2023/07/20 10:23:30;;;;;;;1.67;1.58;;;23.90;63.50;;;;;;4971178;28;20208;-72
2023/07/20 10:25:57;;;;;;;1.80;1.48;;;23.90;63.30;;;;;;4966872;28;20189;-72
2023/07/20 10:28:24;;;;;;;2.03;1.77;;;23.90;64.30;;;;;;4988179;28;20192;-72
2023/07/20 10:30:51;;;;;;;1.50;1.40;;;23.90;63.20;;;;;;4975686;28;20189;-72
2023/07/20 10:33:19;;;;;;;1.60;1.50;;;23.80;63.50;;;;;;4988862;28;20236;-72
2023/07/20 10:35:57;;;;;;;2.13;1.92;;;23.80;63.60;;;;;;4966493;28;20202;-72
2023/07/20 10:38:53;;;;;;;2.47;1.55;;;23.80;63.80;;;;;;4985232;28;20180;-73
2023/07/20 10:41:34;;;;;;;2.75;1.55;;;23.80;64.10;;;;;;4978398;28;20250;-72
2023/07/20 10:44:07;;;;;;;1.80;1.70;;;23.80;63.60;;;;;;4988208;28;20217;-71
2023/07/20 10:46:40;;;;;;;2.22;1.70;;;23.80;63.40;;;;;;4971312;28;20196;-72
2023/07/20 10:49:11;;;;;;;1.60;1.50;;;23.80;63.70;;;;;;4963958;28;20291;-72
2023/07/20 10:51:45;;;;;;;2.35;1.58;;;23.80;63.60;;;;;;4974341;28;20212;-71
2023/07/20 10:54:17;;;;;;;1.80;1.70;;;23.80;63.40;;;;;;4973824;28;20316;-72
2023/07/20 10:56:47;;;;;;;2.03;1.90;;;23.80;63.60;;;;;;4980322;28;20217;-72
2023/07/20 10:59:23;;;;;;;1.70;1.60;;;23.80;63.20;;;;;;4973195;28;20221;-73
2023/07/20 11:01:50;;;;;;;1.77;1.45;;;23.80;63.20;;;;;;4980663;28;20192;-72
2023/07/20 11:04:20;;;;;;;1.80;1.70;;;23.80;63.20;;;;;;4967229;28;20349;-73
2023/07/20 11:06:46;;;;;;;1.60;1.50;;;23.80;63.30;;;;;;4963945;28;20193;-73
2023/07/20 11:09:14;;;;;;;1.70;1.60;;;23.80;63.10;;;;;;4989374;28;20180;-73
2023/07/20 11:11:43;;;;;;;1.70;1.50;;;23.80;63.50;;;;;;4989678;28;20213;-72
2023/07/20 11:14:34;;;;;;;2.65;1.60;;;23.80;63.10;;;;;;4979180;28;20206;-72
2023/07/20 11:17:13;;;;;;;1.73;1.63;;;23.80;63.40;;;;;;5002059;28;20193;-72
2023/07/20 11:19:42;;;;;;;2.53;1.63;;;23.80;63.40;;;;;;4968687;28;20185;-73
2023/07/20 11:22:10;;;;;;;1.75;1.65;;;23.80;63.20;;;;;;4979730;28;20659;-72
2023/07/20 11:24:43;;;;;;;1.65;1.55;;;23.80;63.50;;;;;;4960808;28;20201;-72
2023/07/20 11:27:09;;;;;;;1.60;1.50;;;23.80;63.10;;;;;;4983082;28;20189;-72
2023/07/20 11:29:37;;;;;;;1.50;1.40;;;23.80;62.90;;;;;;4968331;28;20193;-72
2023/07/20 11:32:04;;;;;;;2.20;1.92;;;23.80;63.00;;;;;;4980752;28;20275;-71
2023/07/20 11:34:32;;;;;;;1.80;1.58;;;23.80;63.00;;;;;;4968803;28;20197;-72
2023/07/20 11:36:59;;;;;;;1.67;1.58;;;23.80;63.00;;;;;;4987298;28;20237;-72
2023/07/20 11:39:26;;;;;;;1.85;1.75;;;23.80;63.00;;;;;;4979465;28;20181;-72
2023/07/20 11:41:55;;;;;;;2.10;1.60;;;23.80;63.00;;;;;;4987646;28;20196;-72
2023/07/20 11:44:26;;;;;;;2.10;1.83;;;23.80;63.00;;;;;;4980955;28;20214;-73
2023/07/20 11:47:07;;;;;;;2.10;1.60;;;23.80;63.20;;;;;;4973837;28;20197;-72
2023/07/20 11:49:42;;;;;;;1.67;1.58;;;23.80;62.90;;;;;;4986705;28;20198;-72
2023/07/20 11:52:15;;;;;;;1.80;1.70;;;23.80;63.10;;;;;;4987675;28;20267;-72
2023/07/20 11:54:43;;;;;;;2.30;1.85;;;23.80;63.00;;;;;;4962364;28;20223;-71
2023/07/20 11:57:21;;;;;;;1.60;1.50;;;23.80;62.90;;;;;;4986579;28;20256;-72
2023/07/20 12:00:01;;;;;;;2.42;1.70;;;23.80;63.00;;;;;;4986909;28;20211;-72
2023/07/20 12:02:28;;;;;;;1.80;1.52;;;23.80;62.80;;;;;;4985603;28;20240;-73
2023/07/20 12:04:57;;;;;;;1.77;1.65;;;23.80;62.70;;;;;;4987946;28;20209;-72
2023/07/20 12:07:27;;;;;;;2.28;1.73;;;23.80;62.80;;;;;;4987144;28;20184;-72
2023/07/20 12:10:11;;;;;;;2.30;1.48;;;23.80;62.80;;;;;;4963022;28;20198;-72
2023/07/20 12:12:42;;;;;;;3.65;1.80;;;23.80;62.90;;;;;;4974486;28;20212;-73
2023/07/20 12:15:22;;;;;;;1.80;1.50;;;23.80;63.20;;;;;;4967532;28;20583;-73
2023/07/20 12:17:53;;;;;;;1.92;1.52;;;23.80;63.20;;;;;;4978099;28;20188;-73
2023/07/20 12:20:32;;;;;;;1.80;1.70;;;23.80;62.70;;;;;;4987157;28;20196;-72
2023/07/20 12:23:09;;;;;;;1.70;1.60;;;23.80;62.70;;;;;;4968790;28;20268;-72
2023/07/20 12:25:41;;;;;;;1.42;1.33;;;23.80;62.80;;;;;;4962479;28;20185;-72
2023/07/20 12:28:13;;;;;;;1.60;1.50;;;23.80;62.70;;;;;;4978810;28;20188;-73
2023/07/20 12:30:41;;;;;;;1.45;1.35;;;23.80;62.40;;;;;;4962791;28;20186;-72
2023/07/20 12:33:08;;;;;;;2.00;1.77;;;23.80;62.50;;;;;;4966267;28;20231;-72
2023/07/20 12:35:34;;;;;;;1.52;1.40;;;23.80;62.50;;;;;;4984714;28;20182;-73
2023/07/20 12:38:01;;;;;;;1.60;1.50;;;23.80;62.50;;;;;;4969891;28;20186;-73
2023/07/20 12:40:27;;;;;;;2.15;1.80;;;23.80;62.10;;;;;;4988384;28;20184;-72
2023/07/20 12:42:53;;;;;;;2.03;1.70;;;23.80;62.50;;;;;;4978597;28;20272;-72
2023/07/20 12:45:19;;;;;;;1.70;1.60;;;23.80;63.00;;;;;;4980493;28;20212;-73
2023/07/20 12:47:45;;;;;;;1.88;1.60;;;23.80;63.00;;;;;;4981933;28;20199;-73
2023/07/20 12:50:11;;;;;;;1.60;1.50;;;23.80;62.90;;;;;;4971559;28;20304;-73
2023/07/20 12:52:39;;;;;;;1.75;1.65;;;23.80;62.80;;;;;;4955170;28;20267;-73
2023/07/20 12:55:07;;;;;;;2.78;1.40;;;23.80;62.70;;;;;;4972855;28;20250;-72